N222HL KMKE-KOWB
Flight info
| Callsign | N222HL |
|---|---|
| Flight time | 1h 6m |
| Altitude | 41000 |
| Route | UECKR6 DELHI DNV |
| Aircraft | CL60/M-SBDE1E2E3FGHIJ1J4J5J7M3RWXYZ/LB1V1D1 |
Departure
| Time | 2026-05-08 00:51 |
|---|---|
| Airport | General Mitchell International Airport (KMKE) |
Arrival
| Time | 2026-05-08 01:58 |
|---|---|
| Airport | Owensboro Daviess County Airport (KOWB) |
| Time | Latitude | Longitude | Altitude | Speed | Heading |
|---|---|---|---|---|---|
| 2026-05-08 00:44 | 42.95782 | -87.89645 | 677 ft | 0 kts | 275° |
| 2026-05-08 00:48 | 42.95783 | -87.89648 | 677 ft | 0 kts | 275° |
| 2026-05-08 00:49 | 42.95784 | -87.89659 | 676 ft | 3 kts | 275° |
| 2026-05-08 00:49 | 42.95782 | -87.89680 | 676 ft | 0 kts | 226° |
| 2026-05-08 00:49 | 42.95779 | -87.89681 | 676 ft | 0 kts | 187° |
| 2026-05-08 00:49 | 42.95750 | -87.89643 | 676 ft | 14 kts | 108° |
| 2026-05-08 00:50 | 42.95744 | -87.89505 | 676 ft | 9 kts | 91° |
| 2026-05-08 00:50 | 42.95744 | -87.89465 | 676 ft | 2 kts | 90° |
| 2026-05-08 00:50 | 42.95744 | -87.89432 | 676 ft | 3 kts | 90° |
| 2026-05-08 00:50 | 42.95738 | -87.89339 | 676 ft | 15 kts | 120° |
| 2026-05-08 00:51 | 42.95656 | -87.89320 | 676 ft | 19 kts | 186° |
| 2026-05-08 00:51 | 42.95214 | -87.89394 | 673 ft | 113 kts | 187° |
| 2026-05-08 00:51 | 42.94192 | -87.89566 | 1002 ft | 168 kts | 185° |
| 2026-05-08 00:51 | 42.92981 | -87.89764 | 1869 ft | 191 kts | 186° |
| 2026-05-08 00:52 | 42.91622 | -87.89933 | 3016 ft | 208 kts | 185° |
| 2026-05-08 00:52 | 42.90178 | -87.90002 | 4222 ft | 219 kts | 186° |
| 2026-05-08 00:52 | 42.88628 | -87.89936 | 5278 ft | 229 kts | 175° |
| 2026-05-08 00:52 | 42.87106 | -87.89217 | 6147 ft | 242 kts | 152° |
| 2026-05-08 00:53 | 42.85720 | -87.87781 | 7131 ft | 261 kts | 142° |
| 2026-05-08 00:53 | 42.84433 | -87.86087 | 8447 ft | 267 kts | 136° |
| 2026-05-08 00:53 | 42.83152 | -87.84220 | 9593 ft | 278 kts | 136° |
| 2026-05-08 00:53 | 42.81822 | -87.82284 | 10644 ft | 293 kts | 136° |
| 2026-05-08 00:54 | 42.80352 | -87.80157 | 11398 ft | 318 kts | 135° |
| 2026-05-08 00:54 | 42.78816 | -87.77935 | 12475 ft | 329 kts | 136° |
| 2026-05-08 00:54 | 42.77263 | -87.75691 | 13627 ft | 336 kts | 135° |
| 2026-05-08 00:54 | 42.75651 | -87.73365 | 14747 ft | 342 kts | 136° |
| 2026-05-08 00:55 | 42.74030 | -87.71030 | 15765 ft | 348 kts | 136° |
| 2026-05-08 00:55 | 42.72345 | -87.68610 | 16743 ft | 355 kts | 136° |
| 2026-05-08 00:55 | 42.70602 | -87.66285 | 17654 ft | 358 kts | 146° |
| 2026-05-08 00:55 | 42.68437 | -87.64661 | 18571 ft | 353 kts | 167° |
| 2026-05-08 00:56 | 42.66085 | -87.64093 | 19361 ft | 348 kts | 184° |
| 2026-05-08 00:56 | 42.63631 | -87.63921 | 20162 ft | 353 kts | 184° |
| 2026-05-08 00:56 | 42.61177 | -87.63745 | 20949 ft | 359 kts | 184° |
| 2026-05-08 00:56 | 42.58690 | -87.63564 | 21655 ft | 365 kts | 185° |
| 2026-05-08 00:57 | 42.56126 | -87.63378 | 22356 ft | 370 kts | 185° |
| 2026-05-08 00:57 | 42.53563 | -87.63191 | 23064 ft | 375 kts | 185° |
| 2026-05-08 00:57 | 42.50923 | -87.62984 | 23745 ft | 380 kts | 184° |
| 2026-05-08 00:57 | 42.48293 | -87.62774 | 24363 ft | 386 kts | 185° |
| 2026-05-08 00:58 | 42.45586 | -87.62556 | 25036 ft | 389 kts | 185° |
| 2026-05-08 00:58 | 42.42886 | -87.62387 | 25701 ft | 387 kts | 191° |
| 2026-05-08 00:58 | 42.40243 | -87.62791 | 26270 ft | 381 kts | 199° |
| 2026-05-08 00:58 | 42.37614 | -87.63367 | 26812 ft | 385 kts | 199° |
| 2026-05-08 00:59 | 42.34996 | -87.63927 | 27382 ft | 388 kts | 200° |
| 2026-05-08 00:59 | 42.32305 | -87.64516 | 27949 ft | 388 kts | 202° |
| 2026-05-08 00:59 | 42.29755 | -87.65628 | 28479 ft | 374 kts | 214° |
| 2026-05-08 00:59 | 42.27384 | -87.66994 | 28964 ft | 377 kts | 215° |
| 2026-05-08 01:00 | 42.24921 | -87.68402 | 29509 ft | 378 kts | 215° |
| 2026-05-08 01:00 | 42.22431 | -87.69821 | 30011 ft | 380 kts | 215° |
| 2026-05-08 01:00 | 42.19936 | -87.71243 | 30448 ft | 383 kts | 215° |
| 2026-05-08 01:00 | 42.17428 | -87.72671 | 30901 ft | 385 kts | 216° |
| 2026-05-08 01:01 | 42.14939 | -87.74084 | 31313 ft | 386 kts | 215° |
| 2026-05-08 01:01 | 42.12398 | -87.75526 | 31724 ft | 388 kts | 215° |
| 2026-05-08 01:01 | 42.09829 | -87.76865 | 32102 ft | 397 kts | 211° |
| 2026-05-08 01:01 | 42.07096 | -87.77831 | 32426 ft | 411 kts | 203° |
| 2026-05-08 01:02 | 42.03142 | -87.78358 | 32855 ft | 433 kts | 193° |
| 2026-05-08 01:02 | 42.01107 | -87.78413 | 33094 ft | 435 kts | 193° |
| 2026-05-08 01:02 | 41.98078 | -87.78490 | 33520 ft | 434 kts | 193° |
| 2026-05-08 01:02 | 41.95075 | -87.78569 | 33929 ft | 434 kts | 193° |
| 2026-05-08 01:03 | 41.91983 | -87.78439 | 34346 ft | 443 kts | 186° |
| 2026-05-08 01:03 | 41.88922 | -87.78000 | 34873 ft | 441 kts | 185° |
| 2026-05-08 01:03 | 41.85847 | -87.77550 | 35375 ft | 437 kts | 185° |
| 2026-05-08 01:03 | 41.82866 | -87.77119 | 35771 ft | 435 kts | 185° |
| 2026-05-08 01:04 | 41.79877 | -87.76690 | 36145 ft | 434 kts | 185° |
| 2026-05-08 01:04 | 41.76873 | -87.76260 | 36426 ft | 435 kts | 185° |
| 2026-05-08 01:04 | 41.73858 | -87.75831 | 36698 ft | 436 kts | 185° |
| 2026-05-08 01:04 | 41.70869 | -87.75404 | 37017 ft | 435 kts | 185° |
| 2026-05-08 01:05 | 41.67835 | -87.74972 | 37298 ft | 435 kts | 185° |
| 2026-05-08 01:05 | 41.64803 | -87.74540 | 37564 ft | 435 kts | 185° |
| 2026-05-08 01:05 | 41.61827 | -87.74118 | 37809 ft | 434 kts | 184° |
| 2026-05-08 01:05 | 41.58784 | -87.73686 | 38090 ft | 434 kts | 185° |
| 2026-05-08 01:06 | 41.55768 | -87.73258 | 38304 ft | 434 kts | 184° |
| 2026-05-08 01:06 | 41.52795 | -87.72838 | 38564 ft | 434 kts | 184° |
| 2026-05-08 01:06 | 41.49734 | -87.72405 | 38828 ft | 434 kts | 184° |
| 2026-05-08 01:06 | 41.46742 | -87.71982 | 39105 ft | 433 kts | 184° |
| 2026-05-08 01:07 | 41.43680 | -87.71551 | 39317 ft | 434 kts | 184° |
| 2026-05-08 01:07 | 41.40715 | -87.71133 | 39595 ft | 432 kts | 184° |
| 2026-05-08 01:07 | 41.37719 | -87.70711 | 39811 ft | 432 kts | 184° |
| 2026-05-08 01:07 | 41.34721 | -87.70288 | 40062 ft | 431 kts | 184° |
| 2026-05-08 01:08 | 41.31777 | -87.69875 | 40272 ft | 430 kts | 184° |
| 2026-05-08 01:08 | 41.28782 | -87.69454 | 40455 ft | 430 kts | 184° |
| 2026-05-08 01:08 | 41.25805 | -87.69038 | 40613 ft | 430 kts | 184° |
| 2026-05-08 01:08 | 41.22818 | -87.68619 | 40837 ft | 429 kts | 184° |
| 2026-05-08 01:09 | 41.19955 | -87.68219 | 40951 ft | 431 kts | 184° |
| 2026-05-08 01:09 | 41.13922 | -87.67384 | 40942 ft | 439 kts | 184° |
| 2026-05-08 01:10 | 41.07805 | -87.66535 | 40943 ft | 447 kts | 184° |
| 2026-05-08 01:10 | 41.01572 | -87.65671 | 40943 ft | 454 kts | 184° |
| 2026-05-08 01:11 | 40.95226 | -87.64791 | 40947 ft | 460 kts | 184° |
| 2026-05-08 01:11 | 40.88814 | -87.63903 | 40950 ft | 466 kts | 184° |
| 2026-05-08 01:12 | 40.82354 | -87.63009 | 40943 ft | 470 kts | 184° |
| 2026-05-08 01:12 | 40.75830 | -87.62107 | 40948 ft | 474 kts | 184° |
| 2026-05-08 01:13 | 40.69279 | -87.61203 | 40955 ft | 476 kts | 184° |
| 2026-05-08 01:13 | 40.62649 | -87.60287 | 40960 ft | 476 kts | 184° |
| 2026-05-08 01:14 | 40.56053 | -87.59379 | 40963 ft | 474 kts | 184° |
| 2026-05-08 01:14 | 40.49518 | -87.58482 | 40968 ft | 473 kts | 184° |
| 2026-05-08 01:15 | 40.42986 | -87.57587 | 40970 ft | 472 kts | 184° |
| 2026-05-08 01:15 | 40.36448 | -87.56695 | 40976 ft | 472 kts | 184° |
| 2026-05-08 01:16 | 40.29873 | -87.55798 | 40989 ft | 472 kts | 184° |
| 2026-05-08 01:16 | 40.23348 | -87.54911 | 40984 ft | 472 kts | 185° |
| 2026-05-08 01:17 | 40.16788 | -87.54016 | 40974 ft | 471 kts | 185° |
| 2026-05-08 01:17 | 40.10285 | -87.53126 | 40984 ft | 470 kts | 185° |
| 2026-05-08 01:18 | 40.03755 | -87.52230 | 40985 ft | 469 kts | 185° |
| 2026-05-08 01:18 | 39.97272 | -87.51339 | 40989 ft | 469 kts | 185° |
| 2026-05-08 01:19 | 39.90801 | -87.50447 | 40987 ft | 468 kts | 185° |
| 2026-05-08 01:19 | 39.84337 | -87.49551 | 40987 ft | 466 kts | 185° |
| 2026-05-08 01:20 | 39.77900 | -87.48659 | 40989 ft | 467 kts | 185° |
| 2026-05-08 01:20 | 39.71363 | -87.47684 | 41006 ft | 469 kts | 184° |
| 2026-05-08 01:21 | 39.64909 | -87.46641 | 41006 ft | 469 kts | 184° |
| 2026-05-08 01:21 | 39.58438 | -87.45597 | 41000 ft | 469 kts | 184° |
| 2026-05-08 01:22 | 39.51957 | -87.44553 | 41003 ft | 467 kts | 185° |
| 2026-05-08 01:22 | 39.45514 | -87.43520 | 41012 ft | 467 kts | 185° |
| 2026-05-08 01:23 | 39.39049 | -87.42485 | 41005 ft | 467 kts | 185° |
| 2026-05-08 01:23 | 39.32607 | -87.41457 | 40996 ft | 467 kts | 185° |
| 2026-05-08 01:24 | 39.26194 | -87.40476 | 41000 ft | 465 kts | 186° |
| 2026-05-08 01:24 | 39.19747 | -87.39533 | 41022 ft | 462 kts | 186° |
| 2026-05-08 01:25 | 39.12403 | -87.38446 | 40965 ft | 441 kts | 186° |
| 2026-05-08 01:25 | 39.07382 | -87.37703 | 40908 ft | 427 kts | 187° |
| 2026-05-08 01:26 | 39.01600 | -87.36857 | 40657 ft | 415 kts | 188° |
| 2026-05-08 01:26 | 38.98717 | -87.36431 | 40335 ft | 406 kts | 188° |
| 2026-05-08 01:26 | 38.95966 | -87.36031 | 39782 ft | 402 kts | 189° |
| 2026-05-08 01:26 | 38.93187 | -87.35631 | 39044 ft | 404 kts | 190° |
| 2026-05-08 01:27 | 38.90393 | -87.35232 | 38331 ft | 403 kts | 190° |
| 2026-05-08 01:27 | 38.87589 | -87.34830 | 37535 ft | 405 kts | 191° |
| 2026-05-08 01:27 | 38.84774 | -87.34428 | 36661 ft | 408 kts | 190° |
| 2026-05-08 01:27 | 38.81979 | -87.34027 | 35712 ft | 410 kts | 190° |
| 2026-05-08 01:28 | 38.79133 | -87.33621 | 34895 ft | 412 kts | 190° |
| 2026-05-08 01:28 | 38.76269 | -87.33209 | 34069 ft | 414 kts | 190° |
| 2026-05-08 01:28 | 38.73392 | -87.32797 | 33082 ft | 418 kts | 189° |
| 2026-05-08 01:28 | 38.70498 | -87.32381 | 32249 ft | 416 kts | 189° |
| 2026-05-08 01:29 | 38.67622 | -87.31960 | 31537 ft | 410 kts | 188° |
| 2026-05-08 01:29 | 38.64827 | -87.31551 | 30861 ft | 405 kts | 188° |
| 2026-05-08 01:29 | 38.62007 | -87.31140 | 30160 ft | 400 kts | 188° |
| 2026-05-08 01:29 | 38.59277 | -87.30744 | 29446 ft | 396 kts | 188° |
| 2026-05-08 01:30 | 38.56536 | -87.30348 | 28642 ft | 394 kts | 187° |
| 2026-05-08 01:30 | 38.53861 | -87.29963 | 27911 ft | 390 kts | 187° |
| 2026-05-08 01:30 | 38.51148 | -87.29572 | 27154 ft | 387 kts | 187° |
| 2026-05-08 01:30 | 38.48499 | -87.29192 | 26411 ft | 385 kts | 187° |
| 2026-05-08 01:31 | 38.45844 | -87.28810 | 25682 ft | 382 kts | 186° |
| 2026-05-08 01:31 | 38.43227 | -87.28434 | 24979 ft | 378 kts | 186° |
| 2026-05-08 01:31 | 38.40660 | -87.28064 | 24329 ft | 373 kts | 186° |
| 2026-05-08 01:31 | 38.38068 | -87.27693 | 23604 ft | 371 kts | 186° |
| 2026-05-08 01:32 | 38.35516 | -87.27329 | 22912 ft | 368 kts | 185° |
| 2026-05-08 01:32 | 38.33012 | -87.26968 | 22286 ft | 362 kts | 185° |
| 2026-05-08 01:32 | 38.30498 | -87.26611 | 21498 ft | 362 kts | 185° |
| 2026-05-08 01:32 | 38.28029 | -87.26257 | 20852 ft | 357 kts | 185° |
| 2026-05-08 01:33 | 38.25569 | -87.25906 | 20170 ft | 353 kts | 184° |
| 2026-05-08 01:33 | 38.23157 | -87.25562 | 19505 ft | 349 kts | 184° |
| 2026-05-08 01:33 | 38.20737 | -87.25217 | 18788 ft | 347 kts | 184° |
| 2026-05-08 01:33 | 38.18376 | -87.24882 | 18106 ft | 345 kts | 183° |
| 2026-05-08 01:34 | 38.15974 | -87.24541 | 17421 ft | 342 kts | 183° |
| 2026-05-08 01:34 | 38.13640 | -87.24210 | 16759 ft | 339 kts | 183° |
| 2026-05-08 01:34 | 38.11325 | -87.23903 | 16118 ft | 335 kts | 183° |
| 2026-05-08 01:34 | 38.09009 | -87.23609 | 15471 ft | 331 kts | 183° |
| 2026-05-08 01:35 | 38.06717 | -87.23335 | 14796 ft | 330 kts | 183° |
| 2026-05-08 01:35 | 38.04472 | -87.23081 | 14196 ft | 327 kts | 183° |
| 2026-05-08 01:35 | 38.01459 | -87.22769 | 13288 ft | 324 kts | 183° |
| 2026-05-08 01:35 | 37.99976 | -87.22630 | 12861 ft | 322 kts | 183° |
| 2026-05-08 01:36 | 37.97741 | -87.22441 | 12243 ft | 319 kts | 183° |
| 2026-05-08 01:36 | 37.95559 | -87.22275 | 11694 ft | 314 kts | 182° |
| 2026-05-08 01:36 | 37.93391 | -87.22134 | 11088 ft | 312 kts | 183° |
| 2026-05-08 01:36 | 37.91219 | -87.22018 | 10436 ft | 311 kts | 183° |
| 2026-05-08 01:37 | 37.89061 | -87.22012 | 9823 ft | 307 kts | 186° |
| 2026-05-08 01:37 | 37.86965 | -87.22061 | 9209 ft | 304 kts | 186° |
| 2026-05-08 01:37 | 37.84864 | -87.22124 | 8729 ft | 295 kts | 186° |
| 2026-05-08 01:37 | 37.82848 | -87.22194 | 8368 ft | 292 kts | 186° |
| 2026-05-08 01:38 | 37.80798 | -87.22275 | 8014 ft | 294 kts | 186° |
| 2026-05-08 01:38 | 37.78760 | -87.22361 | 7665 ft | 292 kts | 186° |
| 2026-05-08 01:38 | 37.76735 | -87.22446 | 7319 ft | 290 kts | 186° |
| 2026-05-08 01:38 | 37.74714 | -87.22535 | 6972 ft | 289 kts | 186° |
| 2026-05-08 01:39 | 37.72725 | -87.22628 | 6635 ft | 286 kts | 186° |
| 2026-05-08 01:39 | 37.70764 | -87.22841 | 6294 ft | 280 kts | 198° |
| 2026-05-08 01:39 | 37.68912 | -87.23615 | 5947 ft | 275 kts | 205° |
| 2026-05-08 01:39 | 37.67134 | -87.24486 | 5610 ft | 273 kts | 205° |
| 2026-05-08 01:40 | 37.65385 | -87.25359 | 5279 ft | 272 kts | 205° |
| 2026-05-08 01:40 | 37.63628 | -87.26247 | 4956 ft | 270 kts | 205° |
| 2026-05-08 01:40 | 37.61891 | -87.27146 | 4618 ft | 268 kts | 205° |
| 2026-05-08 01:40 | 37.60165 | -87.28043 | 4287 ft | 266 kts | 205° |
| 2026-05-08 01:41 | 37.58474 | -87.28935 | 3979 ft | 265 kts | 205° |
| 2026-05-08 01:41 | 37.56775 | -87.29846 | 3662 ft | 261 kts | 205° |
| 2026-05-08 01:41 | 37.55150 | -87.30684 | 3331 ft | 249 kts | 198° |
| 2026-05-08 01:41 | 37.53461 | -87.30843 | 2955 ft | 240 kts | 177° |
| 2026-05-08 01:42 | 37.51897 | -87.30246 | 2560 ft | 235 kts | 146° |
| 2026-05-08 01:42 | 37.50932 | -87.28664 | 2313 ft | 225 kts | 107° |
| 2026-05-08 01:42 | 37.50839 | -87.26709 | 2311 ft | 227 kts | 85° |
| 2026-05-08 01:42 | 37.50982 | -87.24708 | 2300 ft | 230 kts | 84° |
| 2026-05-08 01:43 | 37.51190 | -87.22729 | 2291 ft | 230 kts | 75° |
| 2026-05-08 01:43 | 37.51890 | -87.20937 | 2291 ft | 218 kts | 62° |
| 2026-05-08 01:43 | 37.52290 | -87.19228 | 2241 ft | 200 kts | 77° |
| 2026-05-08 01:43 | 37.52952 | -87.17754 | 2139 ft | 189 kts | 47° |
| 2026-05-08 01:44 | 37.53958 | -87.16731 | 2232 ft | 187 kts | 31° |
| 2026-05-08 01:44 | 37.55139 | -87.16019 | 2285 ft | 188 kts | 18° |
| 2026-05-08 01:44 | 37.56423 | -87.15655 | 2288 ft | 188 kts | 4° |
| 2026-05-08 01:44 | 37.57718 | -87.15654 | 2291 ft | 187 kts | 353° |
| 2026-05-08 01:45 | 37.59021 | -87.15841 | 2296 ft | 187 kts | 351° |
| 2026-05-08 01:45 | 37.60305 | -87.16026 | 2307 ft | 187 kts | 353° |
| 2026-05-08 01:45 | 37.61613 | -87.16141 | 2297 ft | 187 kts | 355° |
| 2026-05-08 01:45 | 37.62922 | -87.16202 | 2283 ft | 189 kts | 357° |
| 2026-05-08 01:46 | 37.64243 | -87.16255 | 2045 ft | 187 kts | 357° |
| 2026-05-08 01:46 | 37.65452 | -87.16308 | 1827 ft | 162 kts | 356° |
| 2026-05-08 01:46 | 37.66577 | -87.16363 | 1608 ft | 159 kts | 357° |
| 2026-05-08 01:46 | 37.67680 | -87.16419 | 1410 ft | 157 kts | 356° |
| 2026-05-08 01:47 | 37.68767 | -87.16474 | 1205 ft | 156 kts | 356° |
| 2026-05-08 01:47 | 37.69851 | -87.16528 | 998 ft | 155 kts | 356° |
| 2026-05-08 01:47 | 37.70880 | -87.16578 | 809 ft | 142 kts | 356° |
| 2026-05-08 01:48 | 37.72820 | -87.16676 | 610 ft | 157 kts | 356° |
| 2026-05-08 01:48 | 37.73947 | -87.16719 | 1386 ft | 171 kts | 356° |
| 2026-05-08 01:48 | 37.75149 | -87.16779 | 2397 ft | 188 kts | 356° |
| 2026-05-08 01:48 | 37.76576 | -87.16770 | 2899 ft | 217 kts | 2° |
| 2026-05-08 01:49 | 37.78006 | -87.16938 | 2973 ft | 197 kts | 341° |
| 2026-05-08 01:49 | 37.79460 | -87.17268 | 2964 ft | 240 kts | 2° |
| 2026-05-08 01:49 | 37.81209 | -87.16905 | 2956 ft | 258 kts | 5° |
| 2026-05-08 01:49 | 37.83000 | -87.16882 | 2968 ft | 260 kts | 353° |
| 2026-05-08 01:50 | 37.84658 | -87.17656 | 2980 ft | 257 kts | 321° |
| 2026-05-08 01:50 | 37.85716 | -87.19415 | 2986 ft | 254 kts | 289° |
| 2026-05-08 01:50 | 37.85977 | -87.21616 | 2980 ft | 254 kts | 270° |
| 2026-05-08 01:50 | 37.85590 | -87.23766 | 2980 ft | 253 kts | 240° |
| 2026-05-08 01:51 | 37.84336 | -87.25309 | 2983 ft | 255 kts | 208° |
| 2026-05-08 01:51 | 37.82606 | -87.25788 | 2984 ft | 258 kts | 183° |
| 2026-05-08 01:51 | 37.80807 | -87.25771 | 2981 ft | 258 kts | 180° |
| 2026-05-08 01:51 | 37.79023 | -87.25721 | 2983 ft | 259 kts | 180° |
| 2026-05-08 01:52 | 37.77213 | -87.25671 | 2985 ft | 259 kts | 180° |
| 2026-05-08 01:52 | 37.75402 | -87.25623 | 2984 ft | 259 kts | 180° |
| 2026-05-08 01:52 | 37.73608 | -87.25570 | 2985 ft | 259 kts | 180° |
| 2026-05-08 01:52 | 37.71794 | -87.25518 | 2987 ft | 259 kts | 180° |
| 2026-05-08 01:53 | 37.69999 | -87.25461 | 2983 ft | 259 kts | 180° |
| 2026-05-08 01:53 | 37.68221 | -87.25407 | 2989 ft | 245 kts | 180° |
| 2026-05-08 01:53 | 37.66594 | -87.25354 | 3006 ft | 226 kts | 180° |
| 2026-05-08 01:53 | 37.65077 | -87.25304 | 2995 ft | 210 kts | 180° |
| 2026-05-08 01:54 | 37.63632 | -87.25251 | 2638 ft | 206 kts | 180° |
| 2026-05-08 01:54 | 37.62257 | -87.24877 | 2311 ft | 207 kts | 151° |
| 2026-05-08 01:54 | 37.61353 | -87.23475 | 2279 ft | 213 kts | 110° |
| 2026-05-08 01:54 | 37.61279 | -87.21589 | 2300 ft | 216 kts | 80° |
| 2026-05-08 01:55 | 37.61919 | -87.19332 | 2312 ft | 197 kts | 62° |
| 2026-05-08 01:55 | 37.62380 | -87.18346 | 2310 ft | 193 kts | 58° |
| 2026-05-08 01:55 | 37.63095 | -87.16946 | 2283 ft | 189 kts | 57° |
| 2026-05-08 01:55 | 37.63993 | -87.15884 | 2127 ft | 170 kts | 19° |
| 2026-05-08 01:56 | 37.65099 | -87.15871 | 1937 ft | 148 kts | 346° |
| 2026-05-08 01:56 | 37.66055 | -87.16179 | 1715 ft | 142 kts | 345° |
| 2026-05-08 01:56 | 37.67010 | -87.16403 | 1526 ft | 136 kts | 351° |
| 2026-05-08 01:56 | 37.67942 | -87.16500 | 1359 ft | 135 kts | 356° |
| 2026-05-08 01:57 | 37.68881 | -87.16529 | 1179 ft | 133 kts | 358° |
| 2026-05-08 01:57 | 37.69805 | -87.16541 | 1006 ft | 133 kts | 358° |
| 2026-05-08 01:57 | 37.70736 | -87.16568 | 830 ft | 132 kts | 357° |
| 2026-05-08 01:57 | 37.71646 | -87.16613 | 655 ft | 132 kts | 356° |
| 2026-05-08 01:58 | 37.72567 | -87.16663 | 484 ft | 131 kts | 356° |
| 2026-05-08 01:58 | 37.73425 | -87.16708 | 403 ft | 102 kts | 358° |
| 2026-05-08 01:58 | 37.73911 | -87.16732 | 405 ft | 32 kts | 359° |
| 2026-05-08 01:58 | 37.74014 | -87.16660 | 405 ft | 7 kts | 54° |
| 2026-05-08 01:59 | 37.74049 | -87.16594 | 405 ft | 10 kts | 56° |
| 2026-05-08 01:59 | 37.74090 | -87.16520 | 405 ft | 6 kts | 89° |
| 2026-05-08 01:59 | 37.74048 | -87.16512 | 405 ft | 13 kts | 178° |
| 2026-05-08 01:59 | 37.74002 | -87.16513 | 405 ft | 0 kts | 177° |
| 2026-05-08 02:00 | 37.73936 | -87.16544 | 405 ft | 19 kts | 192° |
| 2026-05-08 02:00 | 37.73817 | -87.16540 | 405 ft | 8 kts | 172° |
| 2026-05-08 02:00 | 37.73784 | -87.16474 | 405 ft | 12 kts | 84° |
| 2026-05-08 02:00 | 37.73804 | -87.16427 | 405 ft | 2 kts | 268° |
| 2026-05-08 02:01 | 37.73804 | -87.16428 | 405 ft | 0 kts | 255° |